Time;durP1;ratioP1;P1;durP2;ratioP2;P2;SDS_P1;SDS_P2;PMS_P1;PMS_P2;Temp;Humidity;BMP_temperature;BMP_pressure;BME280_temperature;BME280_humidity;BME280_pressure;Samples;Min_cycle;Max_cycle;Signal;HPM_P1;HPM_P2
2023/01/19 00:01:04;;;;;;;11.48;9.43;;;;;;;0.65;68.39;99032.03;10325556;28;20712;-68
2023/01/19 00:06:06;;;;;;;11.60;10.20;;;;;;;0.67;67.74;99035.41;10323834;28;20093;-67
2023/01/19 00:11:08;;;;;;;9.52;8.20;;;;;;;0.60;68.41;99036.72;10337879;28;20552;-68
2023/01/19 00:16:10;;;;;;;14.45;9.55;;;;;;;0.58;68.51;99020.22;10319303;28;20060;-67
2023/01/19 00:21:13;;;;;;;9.77;8.38;;;;;;;0.55;68.17;99009.94;10322230;28;20053;-66
2023/01/19 00:26:15;;;;;;;12.02;10.15;;;;;;;0.34;68.80;99018.09;10321701;28;20084;-67
2023/01/19 00:31:19;;;;;;;12.23;9.32;;;;;;;0.34;69.33;99005.03;10325469;28;20125;-68
2023/01/19 00:36:21;;;;;;;10.25;9.25;;;;;;;0.46;69.30;99047.13;10316312;28;20056;-67
2023/01/19 00:42:38;;;;;;;11.15;8.65;;;;;;;0.33;69.14;99031.28;10328449;28;20146;-68
2023/01/19 00:46:44;;;;;;;12.07;9.60;;;;;;;0.35;69.78;99056.47;10318083;28;20135;-67
2023/01/19 00:51:45;;;;;;;9.70;8.50;;;;;;;0.33;69.71;99052.22;10333065;28;20033;-68
2023/01/19 00:56:47;;;;;;;14.68;8.93;;;;;;;0.32;69.30;99048.78;10349130;28;20417;-67
2023/01/19 01:01:48;;;;;;;12.10;9.35;;;;;;;0.43;69.25;99057.78;10338651;28;20373;-68
2023/01/19 01:06:50;;;;;;;12.68;9.20;;;;;;;0.37;69.76;99055.53;10319730;28;20360;-67
2023/01/19 01:11:51;;;;;;;10.93;8.85;;;;;;;0.42;69.05;99061.34;10316402;28;20089;-66
2023/01/19 01:16:53;;;;;;;11.98;8.90;;;;;;;0.51;69.26;99066.91;10314592;28;20421;-67
2023/01/19 01:21:55;;;;;;;9.63;8.45;;;;;;;0.45;69.60;99062.03;10319228;28;20183;-68
2023/01/19 01:26:56;;;;;;;11.75;9.20;;;;;;;0.42;69.69;99066.56;10334426;28;20054;-68
2023/01/19 01:31:58;;;;;;;10.80;8.77;;;;;;;0.32;70.12;99056.63;10320907;28;20151;-68
2023/01/19 01:36:59;;;;;;;9.95;8.57;;;;;;;0.24;70.80;99077.19;10313794;28;20050;-69
2023/01/19 01:42:02;;;;;;;9.80;8.73;;;;;;;0.20;71.31;99067.81;10332383;28;20181;-67
2023/01/19 01:47:03;;;;;;;11.32;8.80;;;;;;;0.25;71.17;99076.22;10314404;28;20152;-68
2023/01/19 01:52:05;;;;;;;14.05;9.65;;;;;;;0.09;71.79;99071.03;10313642;28;20306;-67
2023/01/19 01:57:11;;;;;;;9.43;8.40;;;;;;;0.10;72.34;99079.72;10316964;28;20552;-69
2023/01/19 02:13:25;;;;;;;11.90;9.93;;;;;;;-0.19;73.65;99045.56;10309988;28;20641;-68
2023/01/19 02:18:29;;;;;;;12.18;8.90;;;;;;;-0.07;74.32;99078.88;10326962;28;20181;-69
2023/01/19 02:23:44;;;;;;;9.88;8.77;;;;;;;0.05;74.02;99077.38;10316349;28;20141;-68
2023/01/19 02:29:01;;;;;;;11.80;9.25;;;;;;;0.09;74.00;99091.09;10314899;28;20054;-68
2023/01/19 02:34:04;;;;;;;13.52;9.75;;;;;;;0.06;74.39;99092.16;10311410;28;20046;-68
2023/01/19 02:39:08;;;;;;;14.40;10.73;;;;;;;0.24;74.23;99087.66;10315550;28;20501;-67
2023/01/19 02:44:11;;;;;;;13.93;9.63;;;;;;;0.40;73.81;99084.16;10312492;28;20140;-67
2023/01/19 02:49:13;;;;;;;12.63;9.63;;;;;;;0.43;73.06;99089.22;10315550;28;20046;-67
2023/01/19 02:54:29;;;;;;;12.13;10.48;;;;;;;0.31;73.93;99064.56;10312801;28;20134;-68
2023/01/19 02:59:42;;;;;;;13.40;9.73;;;;;;;0.37;74.04;99074.69;10319289;28;20111;-68
2023/01/19 03:05:07;;;;;;;11.30;9.73;;;;;;;0.15;74.80;99068.06;10314969;28;20115;-68
2023/01/19 03:10:31;;;;;;;13.13;9.35;;;;;;;0.22;75.06;99070.34;10310010;28;20205;-67
2023/01/19 03:15:47;;;;;;;11.30;9.97;;;;;;;0.39;74.39;99061.50;10312851;28;20042;-68
2023/01/19 03:20:54;;;;;;;15.13;10.15;;;;;;;0.31;74.33;99048.88;10331575;28;20046;-68
2023/01/19 03:25:57;;;;;;;12.90;9.73;;;;;;;0.18;74.42;99040.84;10317199;28;20164;-67
2023/01/19 03:31:09;;;;;;;13.60;9.80;;;;;;;0.31;74.42;99065.41;10313296;28;20580;-67
2023/01/19 03:36:34;;;;;;;11.65;10.05;;;;;;;0.11;75.29;99065.72;10321304;28;20249;-67
2023/01/19 03:41:39;;;;;;;14.90;9.63;;;;;;;0.07;76.20;99056.34;10321079;28;20138;-69
2023/01/19 03:46:41;;;;;;;13.55;11.13;;;;;;;0.09;75.70;99064.94;10323953;28;20553;-68
2023/01/19 03:51:43;;;;;;;12.85;9.75;;;;;;;-0.02;76.55;99063.75;10328734;28;20476;-67
2023/01/19 03:56:44;;;;;;;13.68;10.65;;;;;;;0.01;76.76;99077.63;10330594;28;20394;-68
2023/01/19 04:01:47;;;;;;;12.32;10.02;;;;;;;0.04;76.86;99082.69;10324852;28;20058;-69
2023/01/19 04:06:48;;;;;;;12.30;10.73;;;;;;;-0.11;77.33;99061.66;10320860;28;20255;-68
2023/01/19 04:11:50;;;;;;;12.38;10.05;;;;;;;0.10;77.48;99093.63;10327016;28;20084;-67
2023/01/19 04:16:51;;;;;;;11.30;9.95;;;;;;;0.14;77.30;99095.16;10325362;28;20050;-68
2023/01/19 04:21:55;;;;;;;11.50;9.65;;;;;;;0.23;76.88;99072.03;10339333;28;20197;-68
2023/01/19 04:26:57;;;;;;;13.40;10.88;;;;;;;0.26;76.95;99077.94;10320581;28;20141;-67
2023/01/19 04:31:58;;;;;;;11.52;10.13;;;;;;;0.36;77.21;99083.47;10316907;28;20058;-67
2023/01/19 04:36:59;;;;;;;12.60;9.75;;;;;;;0.23;77.84;99066.81;10316079;28;20050;-67
2023/01/19 04:42:01;;;;;;;14.95;10.95;;;;;;;0.33;77.64;99079.28;10321956;28;20061;-67
2023/01/19 04:47:02;;;;;;;13.35;10.98;;;;;;;0.20;78.95;99078.28;10321794;28;20234;-69
2023/01/19 04:52:05;;;;;;;13.65;10.30;;;;;;;0.28;78.61;99083.06;10322008;28;20181;-67
2023/01/19 04:57:06;;;;;;;14.52;11.13;;;;;;;0.23;78.58;99059.78;10322380;28;20080;-66
2023/01/19 05:02:07;;;;;;;14.32;10.52;;;;;;;0.08;78.88;99037.09;10323039;28;20405;-69
2023/01/19 05:07:09;;;;;;;14.63;10.98;;;;;;;0.19;80.03;99062.66;10320963;28;20049;-68
2023/01/19 05:12:11;;;;;;;16.05;11.85;;;;;;;0.16;80.03;99069.75;10317558;28;20058;-68
2023/01/19 05:17:12;;;;;;;14.23;10.88;;;;;;;0.26;80.73;99093.63;10319283;28;20081;-68
2023/01/19 05:22:14;;;;;;;12.43;11.10;;;;;;;0.31;80.56;99091.59;10336147;28;20128;-68
2023/01/19 05:27:15;;;;;;;15.55;12.18;;;;;;;0.35;80.83;99087.03;10317165;28;20049;-69
2023/01/19 05:32:17;;;;;;;13.68;12.00;;;;;;;0.45;80.58;99098.69;10330027;28;20286;-68
2023/01/19 05:37:18;;;;;;;12.63;10.98;;;;;;;0.34;81.17;99091.41;10319223;28;20046;-68
2023/01/19 05:42:20;;;;;;;13.43;12.00;;;;;;;0.24;81.55;99095.50;10328931;28;20056;-68
2023/01/19 05:47:22;;;;;;;17.55;12.02;;;;;;;0.33;82.11;99120.28;10351291;28;20077;-67
2023/01/19 05:52:26;;;;;;;16.83;13.02;;;;;;;0.37;82.06;99110.50;10323592;28;20061;-67
2023/01/19 05:57:27;;;;;;;17.05;13.00;;;;;;;0.34;82.07;99107.13;10321750;28;20050;-68
2023/01/19 06:02:29;;;;;;;18.08;12.48;;;;;;;0.34;82.12;99107.13;10317397;28;20441;-67
2023/01/19 06:07:30;;;;;;;14.15;11.23;;;;;;;0.63;81.76;99136.06;10318213;28;20239;-71
2023/01/19 06:12:32;;;;;;;16.88;13.30;;;;;;;0.75;81.31;99136.28;10313608;28;20066;-67
2023/01/19 06:17:34;;;;;;;15.20;12.15;;;;;;;0.94;80.21;99136.06;10313780;28;20049;-68
2023/01/19 06:22:35;;;;;;;12.25;10.90;;;;;;;0.76;80.87;99127.50;10315985;28;20058;-66
2023/01/19 06:27:38;;;;;;;14.73;12.40;;;;;;;0.81;80.58;99120.19;10322151;28;20052;-67
2023/01/19 06:32:40;;;;;;;16.70;12.95;;;;;;;0.79;80.54;99119.44;10318953;28;20818;-67
2023/01/19 06:37:41;;;;;;;12.90;11.45;;;;;;;0.82;80.44;99133.19;10317993;28;20457;-68
2023/01/19 06:42:42;;;;;;;12.23;11.02;;;;;;;0.96;80.33;99139.41;10314763;28;20508;-68
2023/01/19 06:47:46;;;;;;;14.30;11.05;;;;;;;0.98;80.09;99141.03;10320477;28;20053;-68
2023/01/19 06:52:50;;;;;;;11.85;10.65;;;;;;;0.88;80.50;99142.50;10322954;28;20555;-68
2023/01/19 06:58:00;;;;;;;12.50;11.15;;;;;;;0.85;81.02;99147.91;10316335;28;20053;-67
2023/01/19 07:03:01;;;;;;;16.83;10.10;;;;;;;0.72;81.39;99131.22;10317058;28;20396;-68
2023/01/19 07:08:04;;;;;;;15.50;10.48;;;;;;;0.70;81.29;99142.59;10321245;28;20141;-68
2023/01/19 07:13:05;;;;;;;12.90;10.55;;;;;;;0.69;81.45;99153.19;10327579;28;20060;-69
2023/01/19 07:18:09;;;;;;;13.90;10.77;;;;;;;0.74;81.41;99150.31;10326402;28;20046;-66
2023/01/19 07:23:11;;;;;;;12.88;10.27;;;;;;;0.91;80.74;99155.41;10320784;28;20188;-66
2023/01/19 07:28:14;;;;;;;12.48;11.07;;;;;;;0.90;80.63;99160.75;10320666;28;20053;-67
2023/01/19 07:33:16;;;;;;;13.00;10.02;;;;;;;0.75;81.00;99152.00;10309164;28;20046;-65
2023/01/19 07:38:18;;;;;;;14.60;11.15;;;;;;;0.94;80.95;99177.97;10326546;28;20144;-67
2023/01/19 07:43:19;;;;;;;15.57;11.32;;;;;;;1.12;80.27;99181.31;10338013;28;20069;-67
2023/01/19 07:48:21;;;;;;;14.10;11.98;;;;;;;1.20;79.97;99182.56;10319982;28;20059;-64
2023/01/19 07:53:22;;;;;;;12.80;11.10;;;;;;;0.97;79.52;99144.56;10351222;28;20045;-65
2023/01/19 07:58:25;;;;;;;14.00;11.40;;;;;;;1.27;79.55;99185.63;10316400;28;20420;-66
2023/01/19 08:03:26;;;;;;;15.20;11.93;;;;;;;1.15;80.05;99168.84;10311204;28;20069;-64
2023/01/19 08:08:29;;;;;;;16.35;11.07;;;;;;;1.26;79.49;99180.50;10323605;28;20054;-64
2023/01/19 08:13:30;;;;;;;13.15;11.15;;;;;;;1.33;79.47;99169.53;10320604;28;20057;-63
2023/01/19 08:18:32;;;;;;;15.35;10.77;;;;;;;1.26;78.92;99162.97;10310178;28;20195;-65
2023/01/19 08:23:33;;;;;;;13.20;11.10;;;;;;;1.54;78.92;99187.56;10306248;28;20385;-64
2023/01/19 08:28:35;;;;;;;13.50;11.18;;;;;;;1.53;80.66;99178.84;10309291;28;20275;-64
2023/01/19 08:33:36;;;;;;;14.95;11.35;;;;;;;1.65;79.15;99189.53;10312281;28;20133;-66
2023/01/19 08:38:42;;;;;;;11.95;10.63;;;;;;;1.69;78.43;99186.63;10308630;28;20085;-64
2023/01/19 08:43:44;;;;;;;13.43;11.73;;;;;;;1.75;78.27;99195.91;10326417;28;20045;-64
2023/01/19 08:48:47;;;;;;;16.15;11.88;;;;;;;1.79;78.46;99188.69;10312375;28;20376;-64
2023/01/19 08:53:49;;;;;;;14.65;11.88;;;;;;;1.89;77.76;99192.44;10307467;28;20127;-64
2023/01/19 08:58:50;;;;;;;14.55;11.55;;;;;;;2.02;82.29;99180.22;10315618;28;20308;-65
2023/01/19 09:04:08;;;;;;;12.88;11.20;;;;;;;2.64;77.20;99194.72;10312436;28;20054;-64
2023/01/19 09:09:10;;;;;;;12.65;11.32;;;;;;;2.78;75.44;99205.19;10316996;28;20164;-67
2023/01/19 09:14:11;;;;;;;12.20;10.45;;;;;;;2.59;74.44;99202.06;10316133;28;20076;-68
2023/01/19 09:19:13;;;;;;;11.52;10.07;;;;;;;2.57;74.29;99204.81;10310362;28;20144;-67
2023/01/19 09:24:14;;;;;;;13.45;11.02;;;;;;;2.65;74.17;99207.75;10311903;28;20050;-65
2023/01/19 09:29:16;;;;;;;11.50;9.82;;;;;;;3.02;73.46;99215.06;10321281;28;20050;-68
2023/01/19 09:34:17;;;;;;;11.98;10.73;;;;;;;3.07;72.23;99218.22;10317586;28;20050;-67
2023/01/19 09:39:18;;;;;;;14.05;10.18;;;;;;;3.16;73.16;99195.72;10317288;28;20253;-68
2023/01/19 09:44:32;;;;;;;12.73;10.52;;;;;;;3.44;71.11;99205.25;10314619;28;20081;-67
2023/01/19 09:49:40;;;;;;;13.10;10.70;;;;;;;3.53;69.99;99203.78;10316769;28;20046;-67
2023/01/19 09:54:51;;;;;;;11.77;10.45;;;;;;;3.79;68.94;99196.72;10314132;28;20058;-69
2023/01/19 09:59:58;;;;;;;10.73;9.45;;;;;;;4.44;67.41;99210.59;10307581;28;21077;-67
2023/01/19 10:05:13;;;;;;;11.18;9.95;;;;;;;4.91;65.22;99208.97;10305767;28;20053;-66
2023/01/19 10:10:26;;;;;;;12.77;10.75;;;;;;;4.93;64.10;99185.94;10303836;28;20057;-65
2023/01/19 10:15:40;;;;;;;11.05;9.90;;;;;;;5.05;64.32;99209.75;10303447;28;20046;-66
2023/01/19 10:20:58;;;;;;;11.27;9.73;;;;;;;4.66;65.41;99206.44;10306614;28;20524;-65
2023/01/19 10:26:07;;;;;;;12.52;9.32;;;;;;;4.58;67.11;99207.84;10308132;28;20057;-67
2023/01/19 10:31:10;;;;;;;12.77;9.88;;;;;;;4.42;68.60;99212.53;10318890;28;20107;-66
2023/01/19 10:36:23;;;;;;;11.52;9.88;;;;;;;4.18;69.48;99200.13;10319590;28;20065;-67
2023/01/19 10:41:30;;;;;;;13.27;10.65;;;;;;;4.06;70.15;99199.22;10305993;28;20444;-66
2023/01/19 10:46:41;;;;;;;14.52;10.20;;;;;;;3.74;71.30;99198.84;10306116;28;20429;-68
2023/01/19 10:51:47;;;;;;;11.70;10.13;;;;;;;3.49;72.07;99216.28;10308991;28;20123;-67
2023/01/19 10:57:02;;;;;;;13.25;10.30;;;;;;;3.40;72.92;99213.44;10305422;28;20053;-66
2023/01/19 11:02:25;;;;;;;11.55;8.93;;;;;;;3.23;74.27;99207.53;10306191;28;20058;-67
2023/01/19 11:07:30;;;;;;;14.35;10.95;;;;;;;3.25;74.41;99204.81;10307530;28;20523;-67
2023/01/19 11:12:31;;;;;;;12.10;10.02;;;;;;;3.15;75.47;99204.56;10302345;28;20512;-66
2023/01/19 11:17:32;;;;;;;14.70;10.73;;;;;;;3.12;75.64;99196.88;10305221;28;20106;-67
2023/01/19 11:22:34;;;;;;;12.63;10.80;;;;;;;3.06;76.24;99203.38;10311411;28;20176;-68
2023/01/19 11:27:36;;;;;;;10.20;9.15;;;;;;;3.32;76.19;99206.06;10306722;28;20543;-67
2023/01/19 11:32:40;;;;;;;9.63;8.45;;;;;;;3.37;75.30;99193.44;10307399;28;20050;-67
2023/01/19 11:37:42;;;;;;;7.65;6.50;;;;;;;3.39;73.89;99195.97;10305913;28;20088;-68
2023/01/19 11:42:43;;;;;;;7.30;6.22;;;;;;;3.48;73.24;99185.69;10305092;28;20053;-68
2023/01/19 11:47:49;;;;;;;8.27;6.38;;;;;;;3.62;72.40;99197.03;10305890;28;20415;-68
2023/01/19 11:52:57;;;;;;;8.32;7.00;;;;;;;3.76;72.45;99193.47;10309256;28;20058;-66
2023/01/19 11:58:00;;;;;;;6.55;5.95;;;;;;;3.61;72.08;99188.31;10310637;28;20833;-67
2023/01/19 12:03:29;;;;;;;7.53;6.70;;;;;;;3.42;73.89;99198.41;10313857;28;20064;-66
2023/01/19 12:08:38;;;;;;;9.02;7.28;;;;;;;3.31;74.41;99210.47;10314853;28;20571;-67
2023/01/19 12:13:42;;;;;;;9.18;6.75;;;;;;;3.30;74.27;99206.19;10311453;28;20351;-65
2023/01/19 12:18:50;;;;;;;8.10;7.00;;;;;;;3.44;74.22;99199.97;10318146;28;20524;-66
2023/01/19 12:24:03;;;;;;;9.13;8.23;;;;;;;3.49;74.61;99212.81;10313946;28;20291;-67
2023/01/19 12:29:14;;;;;;;10.88;8.85;;;;;;;3.49;76.10;99208.41;10319379;28;20662;-68
2023/01/19 12:34:24;;;;;;;11.57;9.77;;;;;;;3.43;77.03;99206.19;10312348;28;20256;-66
2023/01/19 12:39:26;;;;;;;13.50;10.57;;;;;;;3.39;78.65;99217.00;10313769;28;20172;-67
2023/01/19 12:44:29;;;;;;;11.38;8.73;;;;;;;3.20;78.89;99205.09;10323905;28;20116;-66
2023/01/19 12:49:34;;;;;;;10.18;8.43;;;;;;;3.24;79.43;99203.94;10323351;28;20068;-67
2023/01/19 12:54:38;;;;;;;11.13;8.68;;;;;;;3.27;78.57;99211.66;10330368;28;20057;-65
2023/01/19 12:59:40;;;;;;;8.25;7.43;;;;;;;3.23;79.59;99211.94;10318815;28;20073;-66
2023/01/19 13:05:16;;;;;;;13.45;8.65;;;;;;;3.19;79.96;99212.13;10320019;28;20054;-68
2023/01/19 13:11:09;;;;;;;7.15;6.00;;;;;;;3.15;80.17;99207.19;10316025;28;20576;-66
2023/01/19 13:16:16;;;;;;;8.38;6.50;;;;;;;3.11;80.48;99209.19;10286732;28;20459;-67
2023/01/19 13:21:42;;;;;;;8.00;6.47;;;;;;;3.03;82.08;99208.84;10330595;28;20168;-66
2023/01/19 13:26:47;;;;;;;9.50;8.18;;;;;;;3.08;83.16;99212.03;10308867;28;20220;-66
2023/01/19 13:31:52;;;;;;;6.63;5.93;;;;;;;2.94;83.61;99212.94;10313922;28;20038;-66
2023/01/19 13:36:55;;;;;;;7.93;6.57;;;;;;;2.99;84.03;99215.25;10310616;28;20541;-65
2023/01/19 13:42:01;;;;;;;12.75;7.03;;;;;;;3.01;84.89;99218.63;10306438;28;20067;-66
2023/01/19 13:47:06;;;;;;;7.55;6.15;;;;;;;3.10;84.58;99223.28;10311959;28;20072;-66
2023/01/19 13:52:23;;;;;;;7.82;6.75;;;;;;;3.17;84.79;99232.44;10309767;28;20139;-67
2023/01/19 13:57:27;;;;;;;8.40;6.88;;;;;;;3.08;84.57;99234.81;10311486;28;20046;-66
2023/01/19 14:02:28;;;;;;;10.15;7.15;;;;;;;3.05;85.53;99225.38;10321790;28;20523;-67
2023/01/19 14:07:30;;;;;;;9.43;7.22;;;;;;;3.21;84.86;99237.50;10311904;28;20042;-66
2023/01/19 14:12:32;;;;;;;7.63;6.82;;;;;;;3.11;85.09;99238.13;10308451;28;20053;-67
2023/01/19 14:17:33;;;;;;;10.23;9.13;;;;;;;3.13;85.60;99243.28;10304558;28;20464;-66
2023/01/19 14:22:40;;;;;;;8.75;6.93;;;;;;;3.18;85.09;99247.28;10306699;28;20054;-66
2023/01/19 14:27:41;;;;;;;8.90;7.40;;;;;;;3.14;85.73;99256.31;10305372;28;20061;-65
2023/01/19 14:32:46;;;;;;;8.00;7.25;;;;;;;3.18;85.69;99267.47;10305994;28;20583;-66
2023/01/19 14:37:49;;;;;;;9.73;7.22;;;;;;;3.01;86.21;99271.22;10307157;28;20463;-67
2023/01/19 14:42:54;;;;;;;9.73;7.20;;;;;;;3.04;86.94;99278.06;10307880;28;20058;-66
2023/01/19 14:47:58;;;;;;;8.80;6.57;;;;;;;2.79;87.28;99283.13;10305454;28;20053;-66
2023/01/19 14:53:03;;;;;;;9.57;5.93;;;;;;;2.70;88.50;99283.66;10306413;28;20062;-66
2023/01/19 14:58:10;;;;;;;9.70;6.85;;;;;;;2.61;88.84;99293.00;10301952;28;20162;-66
2023/01/19 15:03:12;;;;;;;8.00;7.15;;;;;;;2.47;89.45;99267.56;10301354;28;20050;-66
2023/01/19 15:08:31;;;;;;;10.65;8.25;;;;;;;2.60;89.07;99278.16;10303700;28;20054;-67
2023/01/19 15:13:33;;;;;;;10.20;7.45;;;;;;;2.78;89.54;99296.34;10315319;28;20047;-65
2023/01/19 15:18:35;;;;;;;11.00;8.75;;;;;;;2.80;88.48;99292.66;10313650;28;20505;-66
2023/01/19 15:23:36;;;;;;;10.02;9.02;;;;;;;2.45;89.58;99289.66;10307287;28;20163;-65
2023/01/19 15:28:37;;;;;;;11.88;9.45;;;;;;;2.39;89.95;99279.53;10332421;28;20142;-65
2023/01/19 15:33:39;;;;;;;11.48;8.82;;;;;;;2.43;90.18;99292.38;10311719;28;20649;-66
2023/01/19 15:38:41;;;;;;;13.18;9.48;;;;;;;2.40;90.78;99310.94;10309697;28;20444;-67
2023/01/19 15:43:42;;;;;;;10.40;8.52;;;;;;;2.43;91.25;99308.13;10310867;28;21688;-68
2023/01/19 15:48:44;;;;;;;11.00;9.57;;;;;;;2.54;90.46;99307.47;10309572;28;20180;-66
2023/01/19 15:53:46;;;;;;;10.20;8.40;;;;;;;2.55;89.87;99310.91;10313011;28;20073;-65
2023/01/19 15:58:48;;;;;;;11.23;9.50;;;;;;;2.48;90.29;99316.56;10308007;28;20236;-65
2023/01/19 16:03:49;;;;;;;14.48;9.73;;;;;;;2.43;90.65;99315.16;10307762;28;20168;-68
2023/01/19 16:08:58;;;;;;;10.55;8.93;;;;;;;2.58;90.52;99331.75;10306161;28;20272;-66
2023/01/19 16:14:00;;;;;;;10.43;8.25;;;;;;;2.58;90.42;99329.13;10293341;28;20083;-65
2023/01/19 16:19:01;;;;;;;12.00;9.05;;;;;;;2.63;90.34;99329.69;10308863;28;20061;-68
2023/01/19 16:24:03;;;;;;;10.80;8.00;;;;;;;2.44;89.58;99288.78;10312173;28;20046;-65
2023/01/19 16:29:07;;;;;;;11.05;8.68;;;;;;;2.45;90.28;99327.25;10309852;28;20057;-66
2023/01/19 16:34:09;;;;;;;9.90;8.70;;;;;;;2.47;90.33;99335.88;10309559;28;20204;-67
2023/01/19 16:39:12;;;;;;;8.93;8.02;;;;;;;2.62;90.77;99338.50;10309239;28;20301;-67
2023/01/19 16:44:15;;;;;;;15.00;9.05;;;;;;;2.39;90.51;99309.25;10310653;28;20070;-68
2023/01/19 16:49:18;;;;;;;12.80;8.98;;;;;;;2.54;89.68;99314.47;10309285;28;20590;-67
2023/01/19 16:54:24;;;;;;;9.35;7.90;;;;;;;2.68;89.93;99348.63;10316315;28;20553;-67
2023/01/19 16:59:27;;;;;;;10.82;9.27;;;;;;;2.42;90.64;99327.44;10307742;28;20056;-67
2023/01/19 17:04:29;;;;;;;14.73;9.98;;;;;;;2.62;90.11;99341.13;10303996;28;20057;-68
2023/01/19 17:09:31;;;;;;;13.80;9.68;;;;;;;2.74;90.26;99342.16;10308902;28;20483;-67
2023/01/19 17:14:32;;;;;;;12.02;9.98;;;;;;;2.72;89.38;99355.41;10329135;28;20056;-67
2023/01/19 17:19:34;;;;;;;9.88;8.45;;;;;;;2.44;89.71;99354.47;10308008;28;20062;-67
2023/01/19 17:24:35;;;;;;;11.70;9.20;;;;;;;2.26;90.52;99342.47;10311017;28;20119;-68
2023/01/19 17:29:37;;;;;;;12.10;9.55;;;;;;;2.34;90.92;99355.94;10315332;28;20056;-65
2023/01/19 17:34:38;;;;;;;11.43;9.27;;;;;;;2.32;90.66;99343.88;10328904;28;20058;-66
2023/01/19 17:39:39;;;;;;;13.00;9.88;;;;;;;2.51;91.15;99372.47;10311054;28;20057;-68
2023/01/19 17:44:41;;;;;;;14.30;10.43;;;;;;;2.58;90.52;99376.41;10323781;28;20139;-66
2023/01/19 17:49:42;;;;;;;11.15;9.73;;;;;;;2.45;90.81;99358.78;10314429;28;20049;-67
2023/01/19 17:54:44;;;;;;;13.60;10.15;;;;;;;2.45;90.25;99360.56;10324398;28;20152;-65
2023/01/19 17:59:46;;;;;;;10.57;9.30;;;;;;;2.48;90.41;99363.84;10311204;28;20685;-66
2023/01/19 18:04:48;;;;;;;11.73;9.82;;;;;;;2.38;90.19;99352.22;10307283;28;20366;-68
2023/01/19 18:09:50;;;;;;;16.05;11.35;;;;;;;2.56;90.60;99371.25;10311738;28;20050;-68
2023/01/19 18:14:51;;;;;;;12.95;10.60;;;;;;;2.43;89.36;99376.44;10310351;28;20061;-66
2023/01/19 18:19:53;;;;;;;14.80;11.95;;;;;;;2.58;89.73;99379.91;10295272;28;20417;-66
2023/01/19 18:24:55;;;;;;;13.38;11.18;;;;;;;2.76;89.39;99382.31;10311079;28;20046;-68
2023/01/19 18:29:56;;;;;;;13.15;10.70;;;;;;;2.83;88.42;99379.22;10313337;28;20065;-69
2023/01/19 18:34:57;;;;;;;15.02;10.80;;;;;;;2.85;88.49;99391.41;10325320;28;20112;-65
2023/01/19 18:40:03;;;;;;;12.75;10.65;;;;;;;2.81;88.19;99386.34;10311611;28;20417;-66
2023/01/19 18:45:04;;;;;;;;;;;;;;;2.77;88.17;99384.84;10311849;28;20141;-66
2023/01/19 18:50:06;;;;;;;14.35;11.27;;;;;;;2.68;88.13;99395.94;10316535;28;20441;-66
2023/01/19 18:55:08;;;;;;;13.45;11.07;;;;;;;2.69;88.76;99397.63;10316711;28;20057;-67
2023/01/19 19:00:10;;;;;;;14.25;11.27;;;;;;;2.76;88.42;99398.94;10317931;28;20143;-68
2023/01/19 19:05:12;;;;;;;14.32;12.82;;;;;;;2.74;87.76;99382.41;10318877;28;20670;-66
2023/01/19 19:10:13;;;;;;;18.42;13.35;;;;;;;2.76;87.73;99398.94;10320481;28;20879;-66
2023/01/19 19:15:15;;;;;;;15.45;12.38;;;;;;;2.55;88.71;99395.00;10320964;28;20057;-66
2023/01/19 19:20:18;;;;;;;14.10;12.63;;;;;;;2.64;89.10;99405.81;10318042;28;20054;-66
2023/01/19 19:25:20;;;;;;;15.52;12.70;;;;;;;2.64;88.72;99400.56;10319536;28;20049;-65
2023/01/19 19:30:21;;;;;;;16.40;13.48;;;;;;;2.57;88.75;99391.34;10317374;28;20128;-66
2023/01/19 19:35:23;;;;;;;17.73;12.88;;;;;;;2.67;89.03;99404.75;10317515;28;20057;-66
2023/01/19 19:40:25;;;;;;;15.05;13.45;;;;;;;2.65;88.71;99412.72;10321239;28;20057;-66
2023/01/19 19:45:27;;;;;;;18.50;14.43;;;;;;;2.70;88.21;99424.75;10320847;28;20054;-66
2023/01/19 19:50:28;;;;;;;17.20;12.73;;;;;;;2.72;87.84;99423.72;10312624;28;20679;-65
2023/01/19 19:55:29;;;;;;;16.23;13.25;;;;;;;2.60;88.12;99414.81;10316628;28;20615;-65
2023/01/19 20:00:31;;;;;;;15.60;13.55;;;;;;;2.73;87.32;99430.69;10314114;28;20168;-66
2023/01/19 20:05:34;;;;;;;14.82;12.63;;;;;;;2.62;87.43;99417.34;10316217;28;20115;-67
2023/01/19 20:10:36;;;;;;;17.27;13.45;;;;;;;2.78;87.31;99431.22;10313151;28;20092;-66
2023/01/19 20:15:38;;;;;;;14.65;13.10;;;;;;;2.72;87.42;99428.97;10314033;28;20295;-67
2023/01/19 20:20:39;;;;;;;15.88;13.43;;;;;;;2.57;87.45;99419.41;10327634;28;20701;-65
2023/01/19 20:25:41;;;;;;;16.05;12.98;;;;;;;2.43;87.48;99410.59;10312769;28;20113;-68
2023/01/19 20:30:42;;;;;;;16.60;13.98;;;;;;;2.59;87.69;99433.28;10313085;28;20525;-66
2023/01/19 20:35:44;;;;;;;19.27;15.07;;;;;;;2.48;87.57;99437.41;10316315;28;20080;-65
2023/01/19 20:40:45;;;;;;;19.00;15.63;;;;;;;2.32;88.02;99426.13;10313812;28;20049;-65
2023/01/19 20:45:46;;;;;;;17.08;13.98;;;;;;;2.16;88.84;99430.59;10313458;28;20492;-68
2023/01/19 20:50:48;;;;;;;20.10;15.88;;;;;;;2.25;89.18;99445.81;10311017;28;20053;-67
2023/01/19 20:55:50;;;;;;;17.30;13.70;;;;;;;2.19;89.11;99438.28;10309381;28;20069;-67
2023/01/19 21:00:51;;;;;;;16.65;14.63;;;;;;;2.14;89.03;99427.22;10312338;28;20065;-66
2023/01/19 21:05:53;;;;;;;15.43;13.80;;;;;;;1.92;89.00;99408.31;10311179;28;20080;-69
2023/01/19 21:10:55;;;;;;;18.05;15.10;;;;;;;2.23;89.14;99468.69;10330152;28;20875;-68
2023/01/19 21:15:58;;;;;;;16.08;13.55;;;;;;;2.20;89.20;99464.47;10307960;28;20118;-69
2023/01/19 21:20:59;;;;;;;15.05;13.55;;;;;;;2.04;89.34;99472.41;10311308;28;20065;-67
2023/01/19 21:26:01;;;;;;;16.52;14.82;;;;;;;2.03;89.87;99470.69;10315758;28;20531;-67
2023/01/19 21:31:11;;;;;;;19.55;15.45;;;;;;;2.03;90.09;99478.56;10317565;28;20504;-69
2023/01/19 21:36:13;;;;;;;17.15;13.82;;;;;;;2.01;89.97;99477.81;10317640;28;20096;-68
2023/01/19 21:41:15;;;;;;;19.67;14.65;;;;;;;2.00;89.64;99470.00;10314075;28;20497;-68
2023/01/19 21:46:27;;;;;;;17.17;15.38;;;;;;;2.15;89.44;99490.16;10316038;28;20668;-68
2023/01/19 21:51:33;;;;;;;16.35;14.60;;;;;;;2.06;88.97;99488.91;10315779;28;20050;-69
2023/01/19 21:56:36;;;;;;;18.15;14.50;;;;;;;2.06;89.02;99495.94;10313070;28;20422;-68
2023/01/19 22:01:38;;;;;;;16.88;14.65;;;;;;;1.96;89.40;99503.47;10313096;28;20050;-67
2023/01/19 22:06:40;;;;;;;18.95;14.95;;;;;;;1.90;89.38;99501.19;10316680;28;20054;-68
2023/01/19 22:11:41;;;;;;;16.08;14.38;;;;;;;1.83;89.91;99482.34;10313582;28;20433;-67
2023/01/19 22:16:43;;;;;;;18.55;14.30;;;;;;;2.10;89.18;99521.06;10325998;28;20042;-68
2023/01/19 22:21:44;;;;;;;19.65;15.82;;;;;;;1.96;89.87;99519.22;10312350;28;20668;-67
2023/01/19 22:26:48;;;;;;;17.63;15.73;;;;;;;1.90;90.06;99509.06;10317190;28;20057;-68
2023/01/19 22:31:50;;;;;;;18.10;15.05;;;;;;;1.99;90.04;99521.69;10313812;28;20046;-67
2023/01/19 22:36:52;;;;;;;17.33;15.52;;;;;;;2.02;89.39;99529.38;10315453;28;20058;-68
2023/01/19 22:41:54;;;;;;;17.67;14.65;;;;;;;1.99;89.52;99532.19;10321888;28;20080;-69
2023/01/19 22:46:56;;;;;;;16.63;14.73;;;;;;;1.79;90.31;99521.94;10333412;28;20064;-69
2023/01/19 22:51:57;;;;;;;19.80;15.90;;;;;;;1.86;90.29;99529.41;10326535;28;20046;-68
2023/01/19 22:56:58;;;;;;;16.30;14.60;;;;;;;1.91;90.22;99547.53;10315652;28;20057;-68
2023/01/19 23:02:00;;;;;;;17.70;15.88;;;;;;;1.75;89.76;99522.13;10314208;28;20492;-67
2023/01/19 23:07:01;;;;;;;19.15;15.15;;;;;;;1.57;90.25;99510.03;10309243;28;20090;-67
2023/01/19 23:12:03;;;;;;;15.38;13.77;;;;;;;1.75;90.20;99539.66;10315581;28;20124;-69
2023/01/19 23:17:05;;;;;;;19.70;14.68;;;;;;;1.73;89.99;99547.59;10309848;28;20322;-68
2023/01/19 23:22:06;;;;;;;16.02;14.25;;;;;;;1.72;90.35;99559.03;10306883;28;20076;-67
2023/01/19 23:27:07;;;;;;;18.42;14.35;;;;;;;1.69;89.86;99551.31;10309775;28;20420;-67
2023/01/19 23:32:09;;;;;;;17.00;15.15;;;;;;;1.66;89.90;99559.38;10312313;28;20061;-67
2023/01/19 23:37:11;;;;;;;15.95;14.35;;;;;;;1.58;90.14;99566.81;10315931;28;20073;-68